ePrivacy and GPDR Cookie Consent by Cookie Consent
EmailTwitter


Observations de surface / États-Unis / KJFK (74486)

Régions: Québec | Canada | États-Unis | Europe | France | UK | Ailleurs
Station
Affichage
Infos & localisation pour KJFK (74486) | Aide pour décoder les METARs

Observations prises le 2021-05-18 à 15H51 UTC à NEW YORK/JF KENN, NY (KJFK)

Etat du ciel: ciel variable.

Température: 24.0 Celsius

Point de rosée: 9.0 Celsius

Humidité relative: 38%

Vents: Sud-ouest à 26 km/h ou 14 noeuds.

Pression au niveau moyen de la mer: 102.72 kilopascals.

Calage altimétrique: 102.71 kilopascals ou 30.33 pouces de mercure.

Visibilité horizontale: 10.00 milles terrestres ou 16.00 kilomètres.

Observation METAR:

KJFK 181551Z 23014KT 10SM FEW060 SCT250 24/09 A3033 RMK AO2 SLP272 T02440094=